Time;durP1;ratioP1;P1;durP2;ratioP2;P2;SDS_P1;SDS_P2;PMS_P1;PMS_P2;Temp;Humidity;BMP_temperature;BMP_pressure;BME280_temperature;BME280_humidity;BME280_pressure;Samples;Min_cycle;Max_cycle;Signal;HPM_P1;HPM_P2
2023/10/25 00:02:15;;;;;;;11.05;8.40;;;;;;;;;;5042523;28;20117;-77
2023/10/25 00:04:40;;;;;;;12.05;9.23;;;;;;;;;;5042678;28;20056;-76
2023/10/25 00:07:06;;;;;;;10.25;8.52;;;;;;;;;;5046893;28;20036;-77
2023/10/25 00:09:31;;;;;;;11.10;8.80;;;;;;;;;;5048252;28;20028;-77
2023/10/25 00:11:56;;;;;;;10.02;8.18;;;;;;;;;;5046557;28;20028;-75
2023/10/25 00:14:22;;;;;;;10.55;7.72;;;;;;;;;;5034560;28;20083;-76
2023/10/25 00:16:47;;;;;;;10.20;7.30;;;;;;;;;;5043634;28;20091;-77
2023/10/25 00:19:12;;;;;;;10.15;8.40;;;;;;;;;;5045237;28;20033;-77
2023/10/25 00:21:37;;;;;;;9.02;7.03;;;;;;;;;;5046303;28;20044;-77
2023/10/25 00:24:03;;;;;;;8.43;6.88;;;;;;;;;;5042139;28;20516;-77
2023/10/25 00:26:28;;;;;;;8.90;7.47;;;;;;;;;;5046302;28;20158;-76
2023/10/25 00:28:54;;;;;;;8.40;6.22;;;;;;;;;;5041924;28;20064;-77
2023/10/25 00:31:20;;;;;;;7.72;5.10;;;;;;;;;;5048207;28;20055;-77
2023/10/25 00:33:45;;;;;;;7.22;6.28;;;;;;;;;;5053285;28;20088;-77
2023/10/25 00:36:10;;;;;;;7.90;6.28;;;;;;;;;;5049411;28;20040;-76
2023/10/25 00:38:35;;;;;;;7.88;5.68;;;;;;;;;;5052831;28;20048;-77
2023/10/25 00:41:01;;;;;;;10.52;5.72;;;;;;;;;;5045299;28;20163;-77
2023/10/25 00:43:28;;;;;;;7.70;6.10;;;;;;;;;;5052910;28;20036;-77
2023/10/25 00:46:00;;;;;;;8.00;6.20;;;;;;;;;;5045273;28;20461;-77
2023/10/25 00:48:26;;;;;;;8.30;6.57;;;;;;;;;;5052764;28;20060;-77
2023/10/25 00:50:52;;;;;;;8.70;6.15;;;;;;;;;;5049740;28;20032;-77
2023/10/25 00:53:17;;;;;;;7.90;6.30;;;;;;;;;;5048035;28;20033;-77
2023/10/25 00:55:43;;;;;;;8.98;6.40;;;;;;;;;;5050387;28;20057;-75
2023/10/25 00:58:08;;;;;;;7.80;6.05;;;;;;;;;;5043794;28;20025;-77
2023/10/25 01:00:34;;;;;;;9.00;7.45;;;;;;;;;;5049408;28;20029;-77
2023/10/25 01:03:05;;;;;;;12.15;7.13;;;;;;;;;;5051628;28;20025;-77
2023/10/25 01:05:30;;;;;;;10.02;6.53;;;;;;;;;;5052144;28;20032;-77
2023/10/25 01:07:55;;;;;;;9.27;6.40;;;;;;;;;;5045660;28;20627;-77
2023/10/25 01:10:21;;;;;;;8.10;6.68;;;;;;;;;;5046013;28;20032;-77
2023/10/25 01:12:46;;;;;;;7.15;5.75;;;;;;;;;;5042712;28;20032;-77
2023/10/25 01:15:12;;;;;;;8.85;6.85;;;;;;;;;;5049494;28;20028;-77
2023/10/25 01:17:37;;;;;;;9.65;5.70;;;;;;;;;;5052240;28;20496;-76
2023/10/25 01:20:02;;;;;;;8.07;5.63;;;;;;;;;;5047793;28;20135;-77
2023/10/25 01:22:28;;;;;;;8.77;6.43;;;;;;;;;;5051939;28;20032;-77
2023/10/25 01:24:53;;;;;;;8.07;5.38;;;;;;;;;;5047527;28;20022;-77
2023/10/25 01:27:18;;;;;;;6.72;5.32;;;;;;;;;;5044680;28;20036;-77
2023/10/25 01:29:43;;;;;;;8.77;5.53;;;;;;;;;;5052081;28;20453;-77
2023/10/25 01:32:09;;;;;;;9.25;6.38;;;;;;;;;;5048828;28;20033;-76
2023/10/25 01:34:34;;;;;;;8.85;6.45;;;;;;;;;;5049994;28;20024;-78
2023/10/25 01:37:00;;;;;;;9.75;7.03;;;;;;;;;;5027609;28;20079;-77
2023/10/25 01:39:25;;;;;;;8.82;6.82;;;;;;;;;;5052037;28;20056;-77
2023/10/25 01:41:50;;;;;;;9.35;8.00;;;;;;;;;;5045566;28;20060;-77
2023/10/25 01:44:15;;;;;;;9.38;7.15;;;;;;;;;;5050524;28;20120;-76
2023/10/25 01:46:40;;;;;;;12.05;9.48;;;;;;;;;;5050897;28;20021;-77
2023/10/25 01:49:07;;;;;;;12.38;9.05;;;;;;;;;;5041893;28;20510;-77
2023/10/25 01:51:32;;;;;;;14.35;10.13;;;;;;;;;;5039267;28;20067;-77
2023/10/25 01:53:58;;;;;;;14.55;11.70;;;;;;;;;;5044500;28;20053;-77
2023/10/25 01:56:23;;;;;;;17.88;13.98;;;;;;;;;;5047899;28;20059;-77
2023/10/25 01:58:48;;;;;;;14.90;12.27;;;;;;;;;;5031142;28;20055;-77
2023/10/25 02:01:13;;;;;;;15.02;11.75;;;;;;;;;;5030238;28;20456;-77
2023/10/25 02:03:39;;;;;;;13.75;10.15;;;;;;;;;;5046723;28;20091;-77
2023/10/25 02:06:11;;;;;;;18.20;13.88;;;;;;;;;;5046014;28;20033;-77
2023/10/25 02:08:36;;;;;;;;;;;;;;;;;;5042039;28;20025;-77
2023/10/25 02:11:01;;;;;;;15.00;11.13;;;;;;;;;;5048350;28;19908;-76
2023/10/25 02:13:27;;;;;;;17.52;12.15;;;;;;;;;;5050914;28;20799;-77
2023/10/25 02:15:52;;;;;;;16.60;11.85;;;;;;;;;;5046293;28;20028;-77
2023/10/25 02:18:17;;;;;;;16.38;12.60;;;;;;;;;;5045900;28;20057;-77
2023/10/25 02:20:42;;;;;;;16.75;13.30;;;;;;;;;;5044651;28;20021;-77
2023/10/25 02:23:07;;;;;;;17.08;12.70;;;;;;;;;;5046364;28;20091;-77
2023/10/25 02:25:33;;;;;;;17.90;14.77;;;;;;;;;;5032109;28;20452;-77
2023/10/25 02:27:58;;;;;;;18.33;14.52;;;;;;;;;;5049553;28;20063;-77
2023/10/25 02:30:24;;;;;;;19.20;15.45;;;;;;;;;;5046533;28;20056;-77
2023/10/25 02:32:49;;;;;;;21.25;18.00;;;;;;;;;;5046479;28;20029;-78
2023/10/25 02:35:15;;;;;;;16.92;12.50;;;;;;;;;;5044407;28;20056;-77
2023/10/25 02:37:41;;;;;;;16.23;12.75;;;;;;;;;;5043650;28;20103;-77
2023/10/25 02:40:06;;;;;;;17.75;14.00;;;;;;;;;;5048978;28;20114;-76
2023/10/25 02:42:31;;;;;;;19.50;14.40;;;;;;;;;;5044533;28;20507;-77
2023/10/25 02:44:57;;;;;;;18.02;13.07;;;;;;;;;;5040465;28;20036;-77
2023/10/25 02:47:22;;;;;;;18.73;13.25;;;;;;;;;;5046996;28;20029;-75
2023/10/25 02:49:48;;;;;;;21.38;16.60;;;;;;;;;;5039827;28;20049;-77
2023/10/25 02:52:13;;;;;;;19.85;15.10;;;;;;;;;;5044426;28;20493;-77
2023/10/25 02:54:38;;;;;;;20.40;16.00;;;;;;;;;;5045378;28;20036;-76
2023/10/25 02:57:03;;;;;;;18.63;14.68;;;;;;;;;;5045415;28;20025;-77
2023/10/25 02:59:29;;;;;;;20.33;16.05;;;;;;;;;;5047259;28;20095;-77
2023/10/25 03:01:54;;;;;;;19.10;14.27;;;;;;;;;;5044226;28;20037;-77
2023/10/25 03:04:19;;;;;;;19.40;15.40;;;;;;;;;;5043551;28;20079;-77
2023/10/25 03:06:44;;;;;;;18.10;14.82;;;;;;;;;;5049280;28;20158;-77
2023/10/25 03:09:10;;;;;;;16.73;13.35;;;;;;;;;;5030049;28;20029;-77
2023/10/25 03:11:35;;;;;;;17.00;12.23;;;;;;;;;;5049829;28;20115;-77
2023/10/25 03:14:00;;;;;;;16.80;13.02;;;;;;;;;;5045763;28;20095;-75
2023/10/25 03:16:25;;;;;;;15.40;12.55;;;;;;;;;;5048465;28;20029;-78
2023/10/25 03:18:51;;;;;;;13.30;11.23;;;;;;;;;;5042551;28;20097;-77
2023/10/25 03:21:16;;;;;;;13.98;11.15;;;;;;;;;;5047962;28;20120;-77
2023/10/25 03:23:41;;;;;;;13.45;9.90;;;;;;;;;;5048118;28;20481;-77
2023/10/25 03:26:07;;;;;;;12.18;7.70;;;;;;;;;;5047365;28;20089;-77
2023/10/25 03:28:33;;;;;;;12.05;8.90;;;;;;;;;;5050181;28;20021;-77
2023/10/25 03:31:03;;;;;;;11.32;8.80;;;;;;;;;;5042578;28;20025;-77
2023/10/25 03:33:28;;;;;;;11.65;9.15;;;;;;;;;;5047402;28;20048;-77
2023/10/25 03:35:53;;;;;;;12.35;8.20;;;;;;;;;;5048879;28;20040;-77
2023/10/25 03:38:19;;;;;;;11.82;8.95;;;;;;;;;;5046291;28;20143;-77
2023/10/25 03:40:44;;;;;;;11.95;9.32;;;;;;;;;;5045605;28;20055;-77
2023/10/25 03:43:10;;;;;;;11.40;7.15;;;;;;;;;;5045617;28;20045;-77
2023/10/25 03:45:36;;;;;;;10.30;8.30;;;;;;;;;;5042881;28;20111;-77
2023/10/25 03:48:01;;;;;;;9.20;7.28;;;;;;;;;;5046163;28;20067;-77
2023/10/25 03:50:27;;;;;;;9.73;7.38;;;;;;;;;;5047418;28;20039;-77
2023/10/25 03:52:52;;;;;;;11.63;8.57;;;;;;;;;;5047115;28;20096;-78
2023/10/25 03:55:17;;;;;;;11.13;9.25;;;;;;;;;;5047240;28;20030;-75
2023/10/25 03:57:42;;;;;;;12.05;7.65;;;;;;;;;;5043436;28;20053;-77
2023/10/25 04:00:09;;;;;;;12.18;8.35;;;;;;;;;;5049314;28;20033;-78
2023/10/25 04:02:37;;;;;;;11.07;8.32;;;;;;;;;;5050017;28;20055;-76
2023/10/25 04:05:02;;;;;;;10.63;8.05;;;;;;;;;;5046200;28;20477;-77
2023/10/25 04:07:27;;;;;;;9.60;7.15;;;;;;;;;;5050650;28;20033;-77
2023/10/25 04:09:52;;;;;;;12.88;9.18;;;;;;;;;;5049788;28;20017;-78
2023/10/25 04:12:18;;;;;;;12.23;9.15;;;;;;;;;;5048074;28;20459;-77
2023/10/25 04:14:46;;;;;;;11.23;8.75;;;;;;;;;;5047593;28;20076;-80
2023/10/25 04:17:12;;;;;;;13.00;7.93;;;;;;;;;;5051698;28;20041;-79
2023/10/25 04:19:37;;;;;;;16.30;9.50;;;;;;;;;;5051189;28;20040;-77
2023/10/25 04:22:03;;;;;;;15.82;10.30;;;;;;;;;;5047808;28;20040;-76
2023/10/25 04:24:28;;;;;;;14.77;11.05;;;;;;;;;;5047039;28;20021;-77
2023/10/25 04:26:53;;;;;;;15.13;10.00;;;;;;;;;;5044357;28;20571;-76
2023/10/25 04:29:18;;;;;;;18.08;9.25;;;;;;;;;;5048221;28;20064;-76
2023/10/25 04:31:44;;;;;;;15.23;9.32;;;;;;;;;;5052653;28;20040;-76
2023/10/25 04:34:09;;;;;;;10.57;6.43;;;;;;;;;;5043233;28;20509;-77
2023/10/25 04:36:34;;;;;;;11.43;8.50;;;;;;;;;;5049506;28;20508;-77
2023/10/25 04:38:59;;;;;;;13.77;8.48;;;;;;;;;;5045419;28;20029;-77
2023/10/25 04:41:25;;;;;;;7.38;5.30;;;;;;;;;;5045285;28;20159;-77
2023/10/25 04:43:50;;;;;;;10.77;7.32;;;;;;;;;;5047737;28;20029;-78
2023/10/25 04:46:15;;;;;;;13.85;8.95;;;;;;;;;;5051799;28;20131;-77
2023/10/25 04:48:41;;;;;;;19.05;6.25;;;;;;;;;;5052512;28;20106;-77
2023/10/25 04:51:07;;;;;;;11.10;5.93;;;;;;;;;;5046062;28;20034;-77
2023/10/25 04:53:32;;;;;;;11.52;7.78;;;;;;;;;;5051219;28;20036;-77
2023/10/25 04:55:58;;;;;;;9.40;6.47;;;;;;;;;;5047588;28;20034;-77
2023/10/25 04:58:25;;;;;;;12.95;7.80;;;;;;;;;;5044531;28;20033;-77
2023/10/25 05:00:51;;;;;;;13.18;7.32;;;;;;;;;;5048450;28;20037;-77
2023/10/25 05:03:16;;;;;;;13.63;8.32;;;;;;;;;;5048253;28;20087;-77
2023/10/25 05:05:41;;;;;;;13.55;7.95;;;;;;;;;;5047614;28;20048;-78
2023/10/25 05:08:07;;;;;;;17.48;12.55;;;;;;;;;;5045412;28;20059;-77
2023/10/25 05:10:32;;;;;;;16.20;12.05;;;;;;;;;;5045682;28;20100;-77
2023/10/25 05:12:58;;;;;;;18.67;13.10;;;;;;;;;;5052278;28;20029;-78
2023/10/25 05:15:25;;;;;;;29.20;9.00;;;;;;;;;;5048655;28;20029;-77
2023/10/25 05:17:50;;;;;;;13.68;8.40;;;;;;;;;;5048292;28;20028;-76
2023/10/25 05:20:16;;;;;;;13.25;8.02;;;;;;;;;;5044382;28;20041;-77
2023/10/25 05:22:42;;;;;;;12.13;8.27;;;;;;;;;;5048733;28;20024;-77
2023/10/25 05:25:08;;;;;;;6.70;4.68;;;;;;;;;;5049327;28;20025;-77
2023/10/25 05:27:34;;;;;;;19.88;5.63;;;;;;;;;;5047836;28;20021;-77
2023/10/25 05:30:03;;;;;;;22.17;6.57;;;;;;;;;;5033458;28;20398;-77
2023/10/25 05:32:29;;;;;;;72.15;7.40;;;;;;;;;;5047108;28;20037;-76
2023/10/25 05:34:55;;;;;;;49.83;9.68;;;;;;;;;;5048978;28;20477;-76
2023/10/25 05:37:21;;;;;;;10.32;5.88;;;;;;;;;;5043899;28;20390;-77
2023/10/25 05:39:46;;;;;;;22.35;9.30;;;;;;;;;;5051914;28;20025;-77
2023/10/25 05:42:16;;;;;;;15.95;7.68;;;;;;;;;;5049167;28;20039;-77
2023/10/25 05:44:41;;;;;;;24.38;13.32;;;;;;;;;;5050148;28;20397;-77
2023/10/25 05:47:07;;;;;;;20.55;8.50;;;;;;;;;;5044389;28;20030;-77
2023/10/25 05:49:32;;;;;;;24.13;11.02;;;;;;;;;;5045829;28;20037;-77
2023/10/25 05:51:57;;;;;;;15.80;10.00;;;;;;;;;;5044828;28;20076;-77
2023/10/25 05:54:23;;;;;;;13.60;9.90;;;;;;;;;;5067270;22;20128;-86
2023/10/25 05:56:48;;;;;;;15.82;10.50;;;;;;;;;;5060603;28;20029;-87
2023/10/25 05:59:13;;;;;;;15.98;10.02;;;;;;;;;;5049594;28;20166;-86
2023/10/25 06:01:42;;;;;;;13.60;10.05;;;;;;;;;;5055394;28;20017;-86
2023/10/25 06:04:08;;;;;;;15.65;10.88;;;;;;;;;;5052117;28;20037;-86
2023/10/25 06:06:35;;;;;;;18.05;12.43;;;;;;;;;;5055344;28;20125;-86
2023/10/25 06:09:00;;;;;;;20.27;14.40;;;;;;;;;;5056248;28;20098;-86
2023/10/25 06:11:26;;;;;;;17.63;12.95;;;;;;;;;;5056233;28;20021;-87
2023/10/25 06:13:51;;;;;;;15.18;11.65;;;;;;;;;;5040017;28;20032;-86
2023/10/25 06:16:16;;;;;;;19.42;15.05;;;;;;;;;;5054098;28;20048;-86
2023/10/25 06:18:41;;;;;;;24.55;16.00;;;;;;;;;;5024703;28;20527;-86
2023/10/25 06:21:07;;;;;;;19.67;14.13;;;;;;;;;;5059836;28;20029;-87
2023/10/25 06:23:33;;;;;;;16.30;11.88;;;;;;;;;;5061540;28;20029;-87
2023/10/25 06:25:58;;;;;;;16.63;11.65;;;;;;;;;;5056485;28;20086;-86
2023/10/25 06:28:23;;;;;;;18.17;12.70;;;;;;;;;;5057947;28;20158;-87
2023/10/25 06:30:48;;;;;;;12.40;9.27;;;;;;;;;;5055077;28;20114;-87
2023/10/25 06:33:13;;;;;;;21.80;13.07;;;;;;;;;;5035631;28;20112;-87
2023/10/25 06:35:39;;;;;;;17.27;12.60;;;;;;;;;;5034372;28;20527;-87
2023/10/25 06:38:04;;;;;;;22.00;15.27;;;;;;;;;;5052535;28;20051;-87
2023/10/25 06:40:29;;;;;;;20.50;15.80;;;;;;;;;;5048885;28;20107;-87
2023/10/25 06:42:55;;;;;;;17.50;12.80;;;;;;;;;;5033128;28;20036;-87
2023/10/25 06:45:21;;;;;;;19.30;15.35;;;;;;;;;;5052807;28;20053;-87
2023/10/25 06:47:46;;;;;;;18.85;15.40;;;;;;;;;;5036229;28;20436;-87
2023/10/25 06:50:12;;;;;;;17.95;13.93;;;;;;;;;;5052594;28;20063;-88
2023/10/25 06:52:37;;;;;;;20.13;14.45;;;;;;;;;;5052978;28;20412;-87
2023/10/25 06:55:03;;;;;;;21.48;16.02;;;;;;;;;;5032252;28;20488;-87
2023/10/25 06:57:28;;;;;;;21.55;16.55;;;;;;;;;;5034680;28;20025;-88
2023/10/25 06:59:53;;;;;;;18.65;14.05;;;;;;;;;;5054502;28;20393;-87
2023/10/25 07:02:19;;;;;;;17.25;13.43;;;;;;;;;;5052790;28;20032;-87
2023/10/25 07:04:46;;;;;;;17.80;13.55;;;;;;;;;;5052884;28;20036;-87
2023/10/25 07:07:12;;;;;;;19.80;14.57;;;;;;;;;;5051710;28;20112;-87
2023/10/25 07:09:37;;;;;;;20.13;15.60;;;;;;;;;;5044966;28;20101;-87
2023/10/25 07:12:03;;;;;;;20.67;15.38;;;;;;;;;;5035934;28;20039;-87
2023/10/25 07:14:30;;;;;;;19.02;14.50;;;;;;;;;;5050970;28;20112;-87
2023/10/25 07:16:56;;;;;;;19.75;15.15;;;;;;;;;;5053031;28;20040;-87
2023/10/25 07:19:21;;;;;;;24.30;18.73;;;;;;;;;;5052511;28;20032;-87
2023/10/25 07:21:46;;;;;;;21.50;15.38;;;;;;;;;;5055177;28;20028;-87
2023/10/25 07:24:11;;;;;;;17.15;13.98;;;;;;;;;;5049528;28;20037;-87
2023/10/25 07:26:37;;;;;;;19.25;14.23;;;;;;;;;;5051315;28;20017;-87
2023/10/25 07:29:02;;;;;;;20.52;14.20;;;;;;;;;;5051437;28;20033;-88
2023/10/25 07:31:27;;;;;;;19.05;13.52;;;;;;;;;;5051369;28;20029;-87
2023/10/25 07:33:52;;;;;;;18.63;12.85;;;;;;;;;;5052313;28;20075;-86
2023/10/25 07:36:18;;;;;;;21.55;16.38;;;;;;;;;;5053459;28;20033;-87
2023/10/25 07:38:43;;;;;;;17.55;14.10;;;;;;;;;;5037888;28;20032;-87
2023/10/25 07:41:08;;;;;;;20.35;15.00;;;;;;;;;;5036783;28;20021;-87
2023/10/25 07:43:33;;;;;;;19.33;15.38;;;;;;;;;;5041360;28;20398;-87
2023/10/25 07:45:58;;;;;;;17.15;14.23;;;;;;;;;;5055618;28;20029;-87
2023/10/25 07:48:24;;;;;;;20.00;14.15;;;;;;;;;;5056379;28;20060;-87
2023/10/25 07:50:49;;;;;;;17.15;13.40;;;;;;;;;;5054653;28;20409;-86
2023/10/25 07:53:14;;;;;;;15.95;12.00;;;;;;;;;;5037663;28;20033;-87
2023/10/25 07:55:44;;;;;;;19.75;13.63;;;;;;;;;;5053615;28;20029;-87
2023/10/25 07:58:10;;;;;;;15.52;13.00;;;;;;;;;;5056139;28;20044;-87
2023/10/25 08:00:36;;;;;;;14.80;12.15;;;;;;;;;;5037987;28;20025;-87
2023/10/25 08:03:01;;;;;;;17.33;14.27;;;;;;;;;;5037248;28;20113;-87
2023/10/25 08:05:26;;;;;;;13.95;12.23;;;;;;;;;;5037707;28;20061;-87
2023/10/25 08:07:51;;;;;;;15.57;12.73;;;;;;;;;;5054960;28;20052;-87
2023/10/25 08:10:17;;;;;;;15.43;13.20;;;;;;;;;;5038004;28;20033;-87
2023/10/25 08:12:42;;;;;;;17.15;14.00;;;;;;;;;;5055698;28;20567;-87
2023/10/25 08:15:08;;;;;;;16.73;12.85;;;;;;;;;;5039618;28;20033;-87
2023/10/25 08:17:34;;;;;;;15.40;13.40;;;;;;;;;;5056999;28;20065;-87
2023/10/25 08:19:59;;;;;;;14.18;12.57;;;;;;;;;;5057759;28;20393;-88
2023/10/25 08:22:24;;;;;;;15.23;12.30;;;;;;;;;;5056772;28;20036;-87
2023/10/25 08:24:49;;;;;;;16.55;10.98;;;;;;;;;;5056521;28;20024;-87
2023/10/25 08:27:14;;;;;;;15.30;11.32;;;;;;;;;;5054536;28;20033;-87
2023/10/25 08:29:40;;;;;;;14.45;11.55;;;;;;;;;;5054898;28;20037;-87
2023/10/25 08:32:05;;;;;;;13.75;11.63;;;;;;;;;;5040347;28;20028;-87
2023/10/25 08:34:30;;;;;;;13.88;11.38;;;;;;;;;;5054714;28;20481;-87
2023/10/25 08:36:56;;;;;;;12.70;11.15;;;;;;;;;;5056476;28;20127;-87
2023/10/25 08:39:21;;;;;;;12.00;10.70;;;;;;;;;;5027327;28;20036;-87
2023/10/25 08:41:47;;;;;;;14.38;11.02;;;;;;;;;;5037432;28;20029;-87
2023/10/25 08:44:12;;;;;;;15.38;12.07;;;;;;;;;;5036658;28;20036;-87
2023/10/25 08:46:39;;;;;;;11.50;9.90;;;;;;;;;;5058649;28;20102;-87
2023/10/25 08:49:04;;;;;;;12.60;10.65;;;;;;;;;;5053424;28;20413;-87
2023/10/25 08:51:29;;;;;;;13.45;11.15;;;;;;;;;;5054348;28;20041;-87
2023/10/25 08:53:58;;;;;;;15.80;11.52;;;;;;;;;;5020488;28;20033;-87
2023/10/25 08:56:25;;;;;;;17.30;14.00;;;;;;;;;;5054630;28;20508;-87
2023/10/25 08:58:50;;;;;;;17.00;10.73;;;;;;;;;;5046558;28;20032;-87
2023/10/25 09:01:15;;;;;;;12.85;11.13;;;;;;;;;;5037596;28;20025;-87
2023/10/25 09:03:41;;;;;;;15.90;13.68;;;;;;;;;;5055219;28;20016;-87
2023/10/25 09:06:07;;;;;;;13.95;11.18;;;;;;;;;;5050188;28;20481;-87
2023/10/25 09:08:33;;;;;;;12.55;9.48;;;;;;;;;;5055048;28;20116;-87
2023/10/25 09:11:02;;;;;;;10.50;8.40;;;;;;;;;;5052581;28;20108;-87
2023/10/25 09:13:28;;;;;;;15.05;11.00;;;;;;;;;;5052192;28;20041;-88
2023/10/25 09:16:02;;;;;;;12.43;8.90;;;;;;;;;;5053376;28;20028;-88
2023/10/25 09:18:28;;;;;;;10.57;7.82;;;;;;;;;;5053192;28;20040;-87
2023/10/25 09:20:53;;;;;;;10.18;8.02;;;;;;;;;;5053482;28;20037;-87
2023/10/25 09:23:19;;;;;;;10.73;7.53;;;;;;;;;;5036965;28;20043;-87
2023/10/25 09:25:44;;;;;;;11.90;9.10;;;;;;;;;;5030463;28;20039;-87
2023/10/25 09:28:35;;;;;;;10.05;8.20;;;;;;;;;;5052990;28;20150;-87
2023/10/25 09:31:01;;;;;;;9.48;6.28;;;;;;;;;;5047343;28;20118;-87
2023/10/25 09:33:30;;;;;;;8.90;6.68;;;;;;;;;;5052695;28;20481;-87
2023/10/25 09:35:58;;;;;;;11.25;7.78;;;;;;;;;;5052757;28;20094;-87
2023/10/25 09:38:24;;;;;;;8.68;6.47;;;;;;;;;;5035087;28;20032;-88
2023/10/25 09:40:49;;;;;;;11.40;6.90;;;;;;;;;;5055993;28;20467;-87
2023/10/25 09:43:15;;;;;;;9.90;6.07;;;;;;;;;;5034381;28;20111;-87
2023/10/25 09:45:42;;;;;;;11.75;6.70;;;;;;;;;;5052970;28;20025;-87
2023/10/25 09:48:09;;;;;;;13.15;7.43;;;;;;;;;;5054342;28;20389;-87
2023/10/25 09:50:37;;;;;;;10.07;7.40;;;;;;;;;;5053607;28;20029;-87
2023/10/25 09:53:11;;;;;;;11.23;7.60;;;;;;;;;;5055027;28;20037;-87
2023/10/25 09:55:37;;;;;;;9.65;6.90;;;;;;;;;;5045645;28;20060;-88
2023/10/25 09:58:05;;;;;;;12.50;8.25;;;;;;;;;;5053347;28;20021;-85
2023/10/25 10:00:30;;;;;;;12.50;7.88;;;;;;;;;;5053764;28;20033;-87
2023/10/25 10:03:02;;;;;;;9.27;7.07;;;;;;;;;;5052379;28;20090;-87
2023/10/25 10:05:31;;;;;;;10.00;8.00;;;;;;;;;;5036684;28;20029;-86
2023/10/25 10:08:18;;;;;;;10.98;6.53;;;;;;;;;;5048964;28;20051;-86
2023/10/25 10:10:43;;;;;;;7.75;5.50;;;;;;;;;;5054129;28;20040;-86
2023/10/25 10:13:15;;;;;;;8.80;4.77;;;;;;;;;;5053073;28;20409;-88
2023/10/25 10:16:00;;;;;;;10.05;4.95;;;;;;;;;;5048595;28;20303;-87
2023/10/25 10:18:31;;;;;;;7.28;4.35;;;;;;;;;;5051957;28;20060;-87
2023/10/25 10:21:03;;;;;;;6.72;4.88;;;;;;;;;;5051626;28;20086;-84
2023/10/25 10:23:35;;;;;;;6.20;4.20;;;;;;;;;;5053177;28;20063;-87
2023/10/25 10:26:02;;;;;;;6.07;4.68;;;;;;;;;;5038556;28;20021;-85
2023/10/25 10:28:41;;;;;;;7.05;5.15;;;;;;;;;;5056267;28;20060;-85
2023/10/25 10:31:07;;;;;;;5.93;3.60;;;;;;;;;;5037352;28;20033;-86
2023/10/25 10:33:34;;;;;;;6.43;4.07;;;;;;;;;;5057213;28;20021;-86
2023/10/25 10:36:00;;;;;;;5.95;3.45;;;;;;;;;;5054623;28;20470;-86
2023/10/25 10:38:26;;;;;;;6.45;3.97;;;;;;;;;;5052618;28;20107;-86
2023/10/25 10:40:51;;;;;;;7.43;3.40;;;;;;;;;;5036574;28;20174;-86
2023/10/25 10:43:16;;;;;;;7.20;3.00;;;;;;;;;;5051242;28;20119;-86
2023/10/25 10:45:43;;;;;;;5.68;3.10;;;;;;;;;;5037989;28;20029;-85
2023/10/25 10:48:15;;;;;;;5.35;3.20;;;;;;;;;;5056385;28;20036;-85
2023/10/25 10:50:40;;;;;;;5.38;2.90;;;;;;;;;;5036679;28;20036;-85
2023/10/25 10:53:05;;;;;;;6.70;2.45;;;;;;;;;;5037756;28;20044;-83
2023/10/25 10:55:31;;;;;;;4.55;2.80;;;;;;;;;;5051170;28;20036;-83
2023/10/25 10:57:56;;;;;;;4.95;2.60;;;;;;;;;;5054835;28;20029;-83
2023/10/25 11:00:22;;;;;;;4.70;2.08;;;;;;;;;;5053900;28;20053;-84
2023/10/25 11:02:48;;;;;;;4.15;2.20;;;;;;;;;;5051366;28;20025;-85
2023/10/25 11:05:15;;;;;;;7.28;3.58;;;;;;;;;;5052051;28;20111;-85
2023/10/25 11:07:40;;;;;;;5.30;3.15;;;;;;;;;;5051864;28;20065;-85
2023/10/25 11:10:06;;;;;;;5.68;2.40;;;;;;;;;;5034584;28;20064;-85
2023/10/25 11:12:31;;;;;;;4.40;2.75;;;;;;;;;;5036224;28;20033;-86
2023/10/25 11:15:00;;;;;;;4.93;1.75;;;;;;;;;;5050677;28;20126;-85
2023/10/25 11:17:25;;;;;;;4.63;2.35;;;;;;;;;;5049955;28;20072;-85
2023/10/25 11:19:50;;;;;;;5.78;2.20;;;;;;;;;;5052105;28;20041;-85
2023/10/25 11:22:16;;;;;;;5.38;2.10;;;;;;;;;;5054838;28;20483;-85
2023/10/25 11:24:41;;;;;;;4.75;1.98;;;;;;;;;;5032293;28;20150;-86
2023/10/25 11:27:08;;;;;;;4.88;1.88;;;;;;;;;;5024264;28;20064;-85
2023/10/25 11:29:37;;;;;;;7.88;2.47;;;;;;;;;;5022992;28;20497;-85
2023/10/25 11:32:06;;;;;;;4.10;2.33;;;;;;;;;;5027420;28;20096;-85
2023/10/25 11:34:35;;;;;;;5.75;2.40;;;;;;;;;;5012285;28;20051;-86
2023/10/25 11:37:00;;;;;;;4.55;1.95;;;;;;;;;;5031125;28;20034;-85
2023/10/25 11:39:27;;;;;;;3.45;1.60;;;;;;;;;;5028681;28;20421;-85
2023/10/25 11:41:53;;;;;;;4.68;1.85;;;;;;;;;;5025811;28;20041;-85
2023/10/25 11:44:21;;;;;;;6.22;2.33;;;;;;;;;;5027740;28;20497;-85
2023/10/25 11:46:46;;;;;;;6.40;2.05;;;;;;;;;;5030374;28;20064;-85
2023/10/25 11:49:15;;;;;;;4.18;1.85;;;;;;;;;;5028444;28;20065;-84
2023/10/25 11:51:42;;;;;;;4.70;1.85;;;;;;;;;;5028653;28;20399;-85
2023/10/25 11:54:08;;;;;;;4.88;2.00;;;;;;;;;;5008397;28;20037;-85
2023/10/25 11:56:33;;;;;;;3.65;1.45;;;;;;;;;;5021207;28;20037;-85
2023/10/25 11:58:58;;;;;;;5.18;1.77;;;;;;;;;;5025854;28;20028;-85
2023/10/25 12:01:23;;;;;;;4.68;1.42;;;;;;;;;;5025651;28;20029;-85
2023/10/25 12:03:48;;;;;;;4.18;2.15;;;;;;;;;;5029418;28;20021;-85
2023/10/25 12:06:14;;;;;;;2.78;1.50;;;;;;;;;;5013264;28;20033;-86
2023/10/25 12:08:40;;;;;;;2.75;1.20;;;;;;;;;;5013181;28;20277;-85
2023/10/25 12:11:06;;;;;;;4.60;2.10;;;;;;;;;;5028138;28;20037;-85
2023/10/25 12:13:31;;;;;;;4.60;1.40;;;;;;;;;;5023619;28;20034;-85
2023/10/25 12:15:56;;;;;;;4.50;1.25;;;;;;;;;;5030834;28;20468;-85
2023/10/25 12:18:21;;;;;;;6.95;1.33;;;;;;;;;;5030925;28;20474;-85
2023/10/25 12:20:47;;;;;;;2.17;0.95;;;;;;;;;;5030274;28;20436;-85
2023/10/25 12:23:12;;;;;;;2.65;1.08;;;;;;;;;;5025555;28;20451;-85
2023/10/25 12:25:40;;;;;;;2.78;0.90;;;;;;;;;;5028196;28;20627;-85
2023/10/25 12:28:05;;;;;;;2.83;0.95;;;;;;;;;;5015237;28;20030;-85
2023/10/25 12:30:30;;;;;;;1.98;0.85;;;;;;;;;;5012166;28;20038;-85
2023/10/25 12:32:56;;;;;;;3.80;1.25;;;;;;;;;;5032806;28;20033;-85
2023/10/25 12:35:21;;;;;;;1.75;0.85;;;;;;;;;;5010261;28;20042;-85
2023/10/25 12:37:47;;;;;;;3.70;1.30;;;;;;;;;;5031988;28;20026;-85
2023/10/25 12:40:12;;;;;;;5.30;1.20;;;;;;;;;;5027745;28;20035;-86
2023/10/25 12:42:37;;;;;;;2.97;0.75;;;;;;;;;;5031932;28;20068;-85
2023/10/25 12:45:03;;;;;;;2.25;0.80;;;;;;;;;;5016197;28;20029;-85
2023/10/25 12:47:28;;;;;;;3.08;1.20;;;;;;;;;;5035894;28;20036;-85
2023/10/25 12:49:53;;;;;;;1.90;0.90;;;;;;;;;;5015383;28;20080;-85
2023/10/25 12:52:18;;;;;;;2.97;1.00;;;;;;;;;;5033454;28;20032;-85
2023/10/25 12:54:44;;;;;;;1.55;0.70;;;;;;;;;;5015605;28;20033;-85
2023/10/25 12:57:09;;;;;;;3.90;0.70;;;;;;;;;;5033391;28;20059;-85
2023/10/25 12:59:34;;;;;;;3.30;0.80;;;;;;;;;;5033301;28;20022;-85
2023/10/25 13:01:59;;;;;;;1.42;0.60;;;;;;;;;;5032838;28;20033;-85
2023/10/25 13:04:24;;;;;;;2.83;0.75;;;;;;;;;;5032068;28;20040;-85
2023/10/25 13:06:50;;;;;;;3.40;0.93;;;;;;;;;;5009825;28;20036;-84
2023/10/25 13:09:16;;;;;;;3.53;1.25;;;;;;;;;;5036564;28;20048;-83
2023/10/25 13:11:42;;;;;;;3.08;0.80;;;;;;;;;;5029816;28;20044;-84
2023/10/25 13:14:07;;;;;;;2.13;0.75;;;;;;;;;;5036682;28;20482;-84
2023/10/25 13:16:33;;;;;;;2.55;1.38;;;;;;;;;;5012426;28;20033;-85
2023/10/25 13:19:00;;;;;;;3.70;0.90;;;;;;;;;;5030400;28;20400;-84
2023/10/25 13:21:25;;;;;;;2.38;0.70;;;;;;;;;;5027896;28;20033;-84
2023/10/25 13:23:50;;;;;;;2.67;0.80;;;;;;;;;;5029269;28;20101;-84
2023/10/25 13:26:16;;;;;;;2.33;0.88;;;;;;;;;;5024145;28;20033;-85
2023/10/25 13:28:41;;;;;;;3.40;0.80;;;;;;;;;;5032081;28;20061;-85
2023/10/25 13:31:06;;;;;;;2.47;0.82;;;;;;;;;;5013244;28;20128;-85
2023/10/25 13:33:32;;;;;;;1.48;0.60;;;;;;;;;;5005522;28;20047;-85
2023/10/25 13:35:58;;;;;;;2.42;0.77;;;;;;;;;;5029067;28;20041;-85
2023/10/25 13:38:23;;;;;;;4.57;0.90;;;;;;;;;;5009499;28;20034;-85
2023/10/25 13:40:49;;;;;;;4.03;1.50;;;;;;;;;;5036513;28;20460;-85
2023/10/25 13:43:15;;;;;;;1.85;0.70;;;;;;;;;;5028522;28;20037;-83
2023/10/25 13:45:41;;;;;;;1.52;0.40;;;;;;;;;;5030590;28;20030;-85
2023/10/25 13:48:06;;;;;;;1.40;0.40;;;;;;;;;;5026443;28;20387;-85
2023/10/25 13:50:31;;;;;;;1.10;0.55;;;;;;;;;;5028979;28;20041;-87
2023/10/25 13:52:56;;;;;;;1.10;0.30;;;;;;;;;;5028800;28;20029;-85
2023/10/25 13:55:23;;;;;;;2.15;0.50;;;;;;;;;;5013928;28;20038;-84
2023/10/25 13:57:48;;;;;;;1.73;0.60;;;;;;;;;;5015697;28;20025;-84
2023/10/25 14:00:13;;;;;;;2.50;1.02;;;;;;;;;;5027108;28;20056;-85
2023/10/25 14:02:40;;;;;;;4.38;0.77;;;;;;;;;;5024806;28;20113;-84
2023/10/25 14:05:05;;;;;;;2.38;0.88;;;;;;;;;;5029767;28;20030;-84
2023/10/25 14:07:30;;;;;;;3.40;1.02;;;;;;;;;;5029584;28;20432;-84
2023/10/25 14:09:56;;;;;;;3.85;1.27;;;;;;;;;;5033526;28;20037;-84
2023/10/25 14:12:21;;;;;;;4.33;1.17;;;;;;;;;;5013476;28;20030;-84
2023/10/25 14:14:46;;;;;;;5.85;1.13;;;;;;;;;;5025013;28;20288;-84
2023/10/25 14:17:11;;;;;;;2.57;1.00;;;;;;;;;;5027614;28;20025;-84
2023/10/25 14:19:36;;;;;;;1.67;0.60;;;;;;;;;;5013177;28;20265;-83
2023/10/25 14:22:02;;;;;;;3.67;1.40;;;;;;;;;;5030483;28;20029;-83
2023/10/25 14:24:27;;;;;;;2.40;1.27;;;;;;;;;;5031699;28;20033;-83